Scott AFB,Midamerica Airport Belleville US
ICAO: KBLV
IATA: BLV
Category: Large
Scheduled Services: No

Elevation: 459 ft
TransAlt. 18000 ft.

Airport Communications:
ST LOUIS APP/DEP:125.2
126 ARW COMD POST:138.55
ATIS:128.7
CLNC DEL:121.75
GND:119.2
PMSV METRO:23.98
375 AW COMD POST:130.65
PTD:139.85
TWR:118.65
UNICOM:122.95

KBLV Zoom In..

If Map Doesn't Load, Click Here

Runways:

(A) RW 14L length 10000 ft width 150 ft
ILS 111.15 / hdg 135

(B) RW 14R length 8010 ft width 150 ft
ILS 109.90 / hdg 135

(C) RW 32L length 8010 ft width 150 ft
ILS 109.90 / hdg 315

(D) RW 32R length 10000 ft width 150 ft
ILS 111.15 / hdg 315

Location; KBLV
Day. 21 / Time. 15.02 Zulu
* Altimeter: 30.01
* Temperature: 25° c. 77°f.
* Wind from: 270° Speed 07 kn.
Dewpoint: 23° c.
Visibility: 10 Statute Miles.
Clouds: Few 16000 ft.

KBLV 211502Z AUTO 27007KT 10SM FEW160 25/23 A3001 RMK AO2 RAE00DZB00E02 SLP162 $


Wind From 270°
Speed 07 kn.

 
 
jpsmedia.com for Web Design worldairports.se 2018   terms of use